Time;durP1;ratioP1;P1;durP2;ratioP2;P2;SDS_P1;SDS_P2;PMS_P1;PMS_P2;Temp;Humidity;BMP_temperature;BMP_pressure;BME280_temperature;BME280_humidity;BME280_pressure;Samples;Min_cycle;Max_cycle;Signal;HPM_P1;HPM_P2
2022/10/14 00:01:36;;;;;;;44.35;26.45;;;9.90;99.90;;;;;;4845099;29;19912;-75
2022/10/14 00:04:01;;;;;;;;;;;9.90;99.90;;;;;;4861863;29;20138;-76
2022/10/14 00:06:29;;;;;;;45.33;26.33;;;10.10;99.90;;;;;;4844965;29;19918;-76
2022/10/14 00:08:58;;;;;;;37.08;25.58;;;10.20;99.90;;;;;;4844591;29;20037;-76
2022/10/14 00:11:26;;;;;;;37.83;25.52;;;10.20;99.90;;;;;;4861326;29;20559;-76
2022/10/14 00:13:58;;;;;;;39.33;26.63;;;10.30;99.90;;;;;;4844842;29;20037;-76
2022/10/14 00:16:27;;;;;;;44.83;27.15;;;10.30;99.90;;;;;;4844504;29;20132;-76
2022/10/14 00:18:53;;;;;;;37.58;24.35;;;10.30;99.90;;;;;;4861038;29;20049;-76
2022/10/14 00:21:18;;;;;;;;;;;10.30;99.90;;;;;;4845727;29;20129;-76
2022/10/14 00:23:46;;;;;;;38.97;25.27;;;10.20;99.90;;;;;;4845713;29;19919;-76
2022/10/14 00:26:23;;;;;;;38.67;25.80;;;10.30;99.90;;;;;;4861585;29;20510;-75
2022/10/14 00:28:50;;;;;;;36.55;24.45;;;10.20;99.90;;;;;;4843891;29;20029;-76
2022/10/14 00:31:16;;;;;;;36.47;25.55;;;10.20;99.90;;;;;;4859920;29;20494;-76
2022/10/14 00:33:42;;;;;;;43.60;24.98;;;10.20;99.90;;;;;;4859635;29;20030;-76
2022/10/14 00:36:09;;;;;;;;;;;10.20;99.90;;;;;;4860099;29;20048;-76
2022/10/14 00:38:35;;;;;;;36.70;26.02;;;10.10;99.90;;;;;;4843045;29;19923;-75
2022/10/14 00:41:00;;;;;;;;;;;10.00;99.90;;;;;;4843739;29;20030;-75
2022/10/14 00:43:28;;;;;;;39.58;25.20;;;9.90;99.90;;;;;;4843497;29;19955;-75
2022/10/14 00:45:53;;;;;;;37.13;25.50;;;9.80;99.90;;;;;;4843726;29;20493;-76
2022/10/14 00:48:21;;;;;;;;;;;9.70;99.90;;;;;;4844146;29;20128;-76
2022/10/14 00:50:47;;;;;;;;;;;9.70;99.90;;;;;;4860249;29;19912;-75
2022/10/14 00:53:14;;;;;;;42.03;26.77;;;9.60;99.90;;;;;;4843536;29;19920;-75
2022/10/14 00:55:41;;;;;;;37.88;26.50;;;9.60;99.90;;;;;;4860192;29;20132;-75
2022/10/14 00:58:08;;;;;;;39.22;26.60;;;9.40;99.90;;;;;;4859518;29;20037;-75
2022/10/14 01:00:34;;;;;;;37.63;27.25;;;9.40;99.90;;;;;;4843701;29;20032;-75
2022/10/14 01:02:59;;;;;;;;;;;9.40;99.90;;;;;;4860313;29;20033;-76
2022/10/14 01:05:34;;;;;;;42.95;26.10;;;9.40;99.90;;;;;;4843336;29;19960;-75
2022/10/14 01:08:20;;;;;;;46.42;28.92;;;9.40;99.90;;;;;;4860460;29;20093;-75
2022/10/14 01:10:54;;;;;;;45.73;27.77;;;9.40;99.90;;;;;;4843116;29;20081;-75
2022/10/14 01:13:28;;;;;;;42.78;27.65;;;9.30;99.90;;;;;;4859709;29;20258;-76
2022/10/14 01:16:08;;;;;;;40.30;26.77;;;9.30;99.90;;;;;;4859681;29;20033;-76
2022/10/14 01:18:34;;;;;;;46.05;26.90;;;9.30;99.90;;;;;;4859664;29;20045;-75
2022/10/14 01:21:13;;;;;;;;;;;9.20;99.90;;;;;;4843793;29;20029;-76
2022/10/14 01:24:00;;;;;;;46.00;28.13;;;9.20;99.90;;;;;;4858835;29;19973;-76
2022/10/14 01:27:03;;;;;;;49.97;28.38;;;9.20;99.90;;;;;;4842932;29;20044;-76
2022/10/14 01:30:02;;;;;;;46.28;28.27;;;9.20;99.90;;;;;;4859599;29;20112;-75
2022/10/14 01:32:43;;;;;;;41.88;28.17;;;9.30;99.90;;;;;;4859363;29;20033;-75
2022/10/14 01:35:17;;;;;;;44.40;28.77;;;9.40;99.90;;;;;;4859478;29;20031;-76
2022/10/14 01:38:15;;;;;;;52.33;30.48;;;9.40;99.90;;;;;;4859460;29;20435;-76
2022/10/14 01:40:57;;;;;;;43.67;26.83;;;9.40;99.90;;;;;;4857476;29;20037;-75
2022/10/14 01:43:25;;;;;;;46.45;27.42;;;9.40;99.90;;;;;;4858784;29;20456;-75
2022/10/14 01:45:52;;;;;;;45.63;28.88;;;9.40;99.90;;;;;;4842525;29;20053;-75
2022/10/14 01:48:22;;;;;;;43.25;29.88;;;9.40;99.90;;;;;;4842295;29;20058;-77
2022/10/14 01:50:51;;;;;;;46.80;27.42;;;9.30;99.90;;;;;;4858148;29;20093;-75
2022/10/14 01:53:24;;;;;;;47.58;28.38;;;9.30;99.90;;;;;;4842887;29;20563;-75
2022/10/14 01:55:52;;;;;;;41.88;27.30;;;9.40;99.90;;;;;;4843003;29;20033;-75
2022/10/14 01:58:20;;;;;;;48.67;30.10;;;9.40;99.90;;;;;;4858807;29;20121;-75
2022/10/14 02:00:46;;;;;;;52.25;29.25;;;9.50;99.90;;;;;;4859066;29;20029;-75
2022/10/14 02:03:12;;;;;;;;;;;9.50;99.90;;;;;;4858525;29;20032;-76
2022/10/14 02:05:45;;;;;;;42.13;26.40;;;9.50;99.90;;;;;;4842295;29;19908;-76
2022/10/14 02:08:22;;;;;;;39.92;26.75;;;9.60;99.90;;;;;;4858718;29;20098;-75
2022/10/14 02:10:55;;;;;;;41.45;26.35;;;9.60;99.90;;;;;;4859504;29;20426;-74
2022/10/14 02:13:23;;;;;;;37.35;24.63;;;9.60;99.90;;;;;;4859953;29;20033;-75
2022/10/14 02:16:01;;;;;;;43.78;25.60;;;9.50;99.90;;;;;;4841486;29;20033;-76
2022/10/14 02:18:51;;;;;;;37.55;25.00;;;9.40;99.90;;;;;;4842173;29;20078;-76
2022/10/14 02:21:20;;;;;;;38.33;25.65;;;9.40;99.90;;;;;;4858828;29;20537;-76
2022/10/14 02:24:05;;;;;;;46.65;27.25;;;9.30;99.90;;;;;;4842756;29;20694;-76
2022/10/14 02:26:32;;;;;;;40.40;26.77;;;9.30;99.90;;;;;;4842537;29;20112;-76
2022/10/14 02:29:00;;;;;;;42.05;27.25;;;9.30;99.90;;;;;;4859118;29;20045;-76
2022/10/14 02:31:27;;;;;;;43.92;26.65;;;9.30;99.90;;;;;;4858938;29;20049;-76
2022/10/14 02:33:59;;;;;;;40.15;25.13;;;9.30;99.90;;;;;;4859044;29;20037;-74
2022/10/14 02:36:25;;;;;;;39.80;26.02;;;9.30;99.90;;;;;;4859102;29;20072;-74
2022/10/14 02:38:55;;;;;;;41.85;28.05;;;9.30;99.90;;;;;;4858985;29;20132;-74
2022/10/14 02:41:25;;;;;;;43.95;27.75;;;9.30;99.90;;;;;;4859158;29;20033;-74
2022/10/14 02:43:50;;;;;;;44.40;27.33;;;9.30;99.90;;;;;;4858971;29;20463;-74
2022/10/14 02:46:18;;;;;;;;;;;9.30;99.90;;;;;;4859533;29;20084;-74
2022/10/14 02:48:44;;;;;;;44.30;26.80;;;9.30;99.90;;;;;;4859690;29;20308;-75
2022/10/14 02:51:10;;;;;;;;;;;9.20;99.90;;;;;;4860245;29;20112;-76
2022/10/14 02:53:35;;;;;;;43.13;26.85;;;9.20;99.90;;;;;;4842489;29;19915;-74
2022/10/14 02:56:01;;;;;;;;;;;9.20;99.90;;;;;;4858640;29;20029;-75
2022/10/14 02:58:26;;;;;;;42.25;26.55;;;9.20;99.90;;;;;;4857783;29;19927;-73
2022/10/14 03:00:52;;;;;;;;;;;9.20;99.90;;;;;;4857508;29;20034;-74
2022/10/14 03:03:17;;;;;;;42.95;27.15;;;9.20;99.90;;;;;;4858120;29;20098;-74
2022/10/14 03:05:43;;;;;;;;;;;9.20;99.90;;;;;;4841889;29;20487;-74
2022/10/14 03:08:09;;;;;;;38.88;25.40;;;9.20;99.90;;;;;;4857893;29;19916;-73
2022/10/14 03:10:35;;;;;;;38.00;24.73;;;9.20;99.90;;;;;;4856567;29;20034;-74
2022/10/14 03:13:00;;;;;;;;;;;9.30;99.90;;;;;;4858712;29;20448;-74
2022/10/14 03:15:26;;;;;;;43.00;25.33;;;9.20;99.90;;;;;;4857752;29;19912;-74
2022/10/14 03:17:52;;;;;;;;;;;9.10;99.90;;;;;;4858124;29;20045;-74
2022/10/14 03:20:17;;;;;;;39.10;23.08;;;9.20;99.90;;;;;;4842549;29;19947;-74
2022/10/14 03:22:43;;;;;;;;;;;9.10;99.90;;;;;;4862070;29;20117;-75
2022/10/14 03:25:08;;;;;;;34.30;23.33;;;9.10;99.90;;;;;;4861515;29;19912;-74
2022/10/14 03:27:34;;;;;;;;;;;9.20;99.90;;;;;;4861541;29;20044;-74
2022/10/14 03:30:00;;;;;;;33.80;21.65;;;9.30;99.90;;;;;;4845164;29;20023;-74
2022/10/14 03:32:25;;;;;;;;;;;9.40;99.90;;;;;;4845587;29;20043;-75
2022/10/14 03:34:51;;;;;;;35.50;21.98;;;9.40;99.90;;;;;;4844815;29;19964;-74
2022/10/14 03:37:16;;;;;;;;;;;9.30;99.90;;;;;;4845170;29;20040;-74
2022/10/14 03:39:42;;;;;;;39.97;23.85;;;9.30;99.90;;;;;;4844588;29;19954;-74
2022/10/14 03:42:07;;;;;;;;;;;9.20;99.90;;;;;;4861611;29;20041;-74
2022/10/14 03:44:33;;;;;;;44.55;24.48;;;9.20;99.90;;;;;;4861567;29;20010;-74
2022/10/14 03:46:58;;;;;;;;;;;9.20;99.90;;;;;;4860635;29;20162;-74
2022/10/14 03:49:24;;;;;;;36.30;21.83;;;9.10;99.90;;;;;;4844520;29;20364;-74
2022/10/14 03:51:49;;;;;;;;;;;9.10;99.90;;;;;;4844625;29;20030;-74
2022/10/14 03:54:15;;;;;;;33.22;21.45;;;9.30;99.90;;;;;;4844484;29;19919;-74
2022/10/14 03:56:40;;;;;;;;;;;9.30;99.90;;;;;;4861617;29;20116;-74
2022/10/14 03:59:06;;;;;;;32.72;21.65;;;9.40;99.90;;;;;;4860370;29;20338;-74
2022/10/14 04:01:32;;;;;;;;;;;9.40;99.90;;;;;;4859882;29;20052;-74
2022/10/14 04:03:58;;;;;;;39.13;20.58;;;9.50;99.90;;;;;;4845008;29;19994;-76
2022/10/14 04:06:23;;;;;;;;;;;9.50;99.90;;;;;;4846795;29;20030;-74
2022/10/14 04:08:49;;;;;;;33.65;21.70;;;9.60;99.90;;;;;;4847101;29;19912;-75
2022/10/14 04:11:16;;;;;;;;;;;9.60;99.90;;;;;;4845629;29;20076;-76
2022/10/14 04:13:42;;;;;;;36.00;19.30;;;9.70;99.90;;;;;;4845372;29;20377;-75
2022/10/14 04:16:08;;;;;;;;;;;9.70;99.90;;;;;;4864287;29;20041;-75
2022/10/14 04:18:35;;;;;;;32.83;18.25;;;9.80;99.90;;;;;;4863643;29;19928;-74
2022/10/14 04:21:02;;;;;;;28.88;20.42;;;9.90;99.90;;;;;;4845944;29;20811;-76
2022/10/14 04:23:28;;;;;;;35.55;20.77;;;9.80;99.90;;;;;;4863013;29;20058;-75
2022/10/14 04:25:53;;;;;;;;;;;9.90;99.90;;;;;;4863321;29;20037;-76
2022/10/14 04:28:19;;;;;;;28.77;18.90;;;9.90;99.90;;;;;;4862668;29;19911;-75
2022/10/14 04:30:46;;;;;;;;;;;10.00;99.90;;;;;;4860367;29;20033;-75
2022/10/14 04:33:12;;;;;;;26.88;16.08;;;10.10;99.90;;;;;;4856043;29;20313;-76
2022/10/14 04:35:37;;;;;;;;;;;10.20;99.90;;;;;;4860087;29;20045;-76
2022/10/14 04:38:03;;;;;;;24.95;13.63;;;10.30;99.90;;;;;;4861840;29;19945;-76
2022/10/14 04:40:29;;;;;;;;;;;10.30;99.90;;;;;;4846298;29;20094;-76
2022/10/14 04:42:58;;;;;;;24.00;14.10;;;10.40;99.90;;;;;;4861825;29;19912;-77
2022/10/14 04:45:25;;;;;;;27.58;14.35;;;10.40;99.90;;;;;;4845930;29;20490;-76
2022/10/14 04:47:51;;;;;;;24.17;14.82;;;10.40;99.90;;;;;;4846578;29;20061;-77
2022/10/14 04:50:17;;;;;;;;;;;10.50;99.90;;;;;;4846120;29;20064;-76
2022/10/14 04:52:43;;;;;;;31.35;14.95;;;10.50;99.90;;;;;;4843781;29;20390;-76
2022/10/14 04:55:09;;;;;;;;;;;10.50;99.90;;;;;;4852753;29;20124;-77
2022/10/14 04:57:35;;;;;;;24.75;14.63;;;10.50;99.90;;;;;;4849621;29;19939;-77
2022/10/14 05:00:01;;;;;;;;;;;10.60;99.90;;;;;;4846957;29;20022;-77
2022/10/14 05:02:26;;;;;;;21.42;12.40;;;10.60;99.90;;;;;;4843784;29;19923;-77
2022/10/14 05:04:52;;;;;;;;;;;10.70;99.90;;;;;;4846973;29;20038;-76
2022/10/14 05:07:17;;;;;;;23.42;14.00;;;10.70;99.90;;;;;;4863344;29;20002;-77
2022/10/14 05:09:43;;;;;;;;;;;10.70;99.90;;;;;;4863806;29;20035;-77
2022/10/14 05:12:08;;;;;;;26.40;14.30;;;10.90;99.90;;;;;;4854504;29;19954;-76
2022/10/14 05:14:34;;;;;;;;;;;10.90;99.90;;;;;;4860403;29;20037;-77
2022/10/14 05:17:00;;;;;;;23.15;12.07;;;11.00;99.90;;;;;;4863433;29;20652;-77
2022/10/14 05:19:26;;;;;;;;;;;11.10;99.90;;;;;;4847361;29;20502;-77
2022/10/14 05:21:51;;;;;;;20.25;12.13;;;11.10;99.90;;;;;;4845922;29;19908;-77
2022/10/14 05:24:17;;;;;;;;;;;11.20;99.90;;;;;;4845820;29;20029;-77
2022/10/14 05:26:42;;;;;;;23.33;11.52;;;11.20;99.90;;;;;;4856629;29;19916;-77
2022/10/14 05:29:09;;;;;;;;;;;11.30;99.90;;;;;;4842370;29;20030;-76
2022/10/14 05:31:35;;;;;;;21.90;11.15;;;11.30;99.90;;;;;;4840943;29;19916;-77
2022/10/14 05:34:01;;;;;;;20.60;11.82;;;11.50;99.90;;;;;;4842959;29;20052;-77
2022/10/14 05:36:26;;;;;;;;;;;11.40;99.90;;;;;;4842340;29;20030;-77
2022/10/14 05:38:55;;;;;;;21.52;11.88;;;11.40;99.90;;;;;;4858749;29;19925;-76
2022/10/14 05:41:21;;;;;;;28.70;13.35;;;11.50;99.90;;;;;;4880365;29;20463;-77
2022/10/14 05:43:47;;;;;;;;;;;11.50;99.90;;;;;;4880336;29;20029;-77
2022/10/14 05:46:12;;;;;;;22.15;11.82;;;11.50;99.90;;;;;;4867597;29;19927;-76
2022/10/14 05:48:38;;;;;;;;;;;11.60;99.90;;;;;;4844447;29;20805;-76
2022/10/14 05:51:04;;;;;;;19.75;12.05;;;11.70;99.90;;;;;;4826501;29;19976;-76
2022/10/14 05:53:31;;;;;;;;;;;11.70;99.90;;;;;;4843114;29;20038;-76
2022/10/14 05:56:04;;;;;;;22.08;12.15;;;11.70;99.90;;;;;;4837622;29;20398;-77
2022/10/14 05:58:30;;;;;;;17.60;12.00;;;11.90;99.90;;;;;;4862880;29;20156;-77
2022/10/14 06:01:00;;;;;;;;;;;11.90;99.90;;;;;;4846097;29;20431;-77
2022/10/14 06:03:26;;;;;;;18.05;10.57;;;11.90;99.90;;;;;;4846483;29;20578;-77
2022/10/14 06:05:51;;;;;;;;;;;12.00;99.90;;;;;;4846228;29;20041;-77
2022/10/14 06:08:17;;;;;;;19.77;11.70;;;12.00;99.90;;;;;;4862565;29;19923;-76
2022/10/14 06:10:42;;;;;;;;;;;12.10;99.90;;;;;;4847284;29;20090;-76
2022/10/14 06:13:08;;;;;;;22.50;10.93;;;12.20;99.90;;;;;;4846741;29;20365;-77
2022/10/14 06:15:34;;;;;;;;;;;12.30;99.90;;;;;;4862599;29;20110;-76
2022/10/14 06:17:59;;;;;;;21.13;11.40;;;12.20;99.90;;;;;;4839821;29;19984;-77
2022/10/14 06:20:25;;;;;;;;;;;12.30;99.90;;;;;;4844955;29;20042;-76
2022/10/14 06:22:51;;;;;;;24.13;11.25;;;12.40;99.90;;;;;;4843876;29;19908;-76
2022/10/14 06:25:16;;;;;;;;;;;12.50;99.90;;;;;;4842658;29;20048;-77
2022/10/14 06:27:42;;;;;;;18.90;12.52;;;12.50;99.90;;;;;;4846707;29;20357;-77
2022/10/14 06:30:08;;;;;;;;;;;12.60;99.90;;;;;;4846882;29;20120;-77
2022/10/14 06:32:34;;;;;;;17.33;10.05;;;12.70;99.90;;;;;;4863196;29;19955;-76
2022/10/14 06:34:59;;;;;;;;;;;12.80;99.90;;;;;;4865011;29;20570;-77
2022/10/14 06:37:25;;;;;;;13.35;8.85;;;12.80;99.90;;;;;;4847260;29;19920;-76
2022/10/14 06:39:50;;;;;;;;;;;12.80;99.90;;;;;;4848407;29;20104;-78
2022/10/14 06:42:16;;;;;;;21.08;10.38;;;12.90;99.90;;;;;;4863516;29;19940;-77
2022/10/14 06:44:41;;;;;;;;;;;13.00;99.90;;;;;;4848531;29;20033;-77
2022/10/14 06:47:07;;;;;;;16.77;10.57;;;13.10;99.90;;;;;;4864200;29;19949;-77
2022/10/14 06:49:33;;;;;;;;;;;13.20;99.90;;;;;;4847695;29;20037;-76
2022/10/14 06:52:00;;;;;;;16.92;10.63;;;13.30;99.90;;;;;;4863937;29;19958;-77
2022/10/14 06:54:28;;;;;;;16.23;10.30;;;13.40;99.90;;;;;;4863800;29;20037;-77
2022/10/14 06:56:54;;;;;;;17.40;9.82;;;13.50;99.90;;;;;;4864042;29;20048;-74
2022/10/14 06:59:19;;;;;;;;;;;13.60;99.90;;;;;;4848105;29;20050;-75
2022/10/14 07:01:45;;;;;;;21.00;9.63;;;13.70;99.90;;;;;;4845685;29;19915;-77
2022/10/14 07:04:11;;;;;;;11.63;8.13;;;13.80;99.90;;;;;;4828946;29;20061;-77
2022/10/14 07:06:37;;;;;;;18.52;9.30;;;14.00;99.90;;;;;;4829318;29;20052;-77
2022/10/14 07:09:03;;;;;;;15.10;9.77;;;14.10;99.90;;;;;;4829302;29;20125;-77
2022/10/14 07:11:29;;;;;;;15.93;8.82;;;14.20;99.90;;;;;;4813972;29;20030;-77
2022/10/14 07:13:55;;;;;;;;;;;14.30;99.90;;;;;;4845995;29;20044;-77
2022/10/14 07:16:27;;;;;;;13.38;8.63;;;14.50;99.90;;;;;;4829927;29;19908;-77
2022/10/14 07:18:53;;;;;;;13.57;6.88;;;14.50;99.90;;;;;;4845618;29;20045;-77
2022/10/14 07:21:20;;;;;;;13.15;7.25;;;14.50;99.90;;;;;;4844791;29;20037;-77
2022/10/14 07:23:46;;;;;;;12.80;7.43;;;14.70;99.90;;;;;;4829072;29;20042;-77
2022/10/14 07:26:12;;;;;;;11.57;7.55;;;14.70;99.90;;;;;;4845618;29;20062;-77
2022/10/14 07:28:38;;;;;;;14.57;6.13;;;14.80;99.90;;;;;;4828439;29;20116;-77
2022/10/14 07:31:28;;;;;;;11.32;7.63;;;14.90;99.90;;;;;;4845856;29;20725;-77
2022/10/14 07:33:54;;;;;;;10.40;6.55;;;15.10;99.90;;;;;;4844983;29;20049;-77
2022/10/14 07:36:20;;;;;;;12.65;6.63;;;15.20;99.90;;;;;;4845218;29;20046;-77
2022/10/14 07:38:47;;;;;;;13.82;8.07;;;15.20;99.90;;;;;;4828881;29;20042;-77
2022/10/14 07:41:20;;;;;;;10.52;6.25;;;15.40;99.90;;;;;;4847758;29;20034;-78
2022/10/14 07:43:56;;;;;;;13.60;6.78;;;15.50;99.90;;;;;;4818353;29;20048;-77
2022/10/14 07:46:31;;;;;;;13.32;7.50;;;15.60;99.90;;;;;;4816049;29;20058;-77
2022/10/14 07:49:05;;;;;;;16.00;7.40;;;15.80;99.90;;;;;;4829858;29;20034;-77
2022/10/14 07:51:32;;;;;;;14.65;7.95;;;16.00;99.90;;;;;;4829121;29;20041;-76
2022/10/14 07:54:00;;;;;;;25.73;9.10;;;16.20;99.90;;;;;;4829162;29;20038;-76
2022/10/14 07:56:26;;;;;;;13.95;8.68;;;16.60;99.90;;;;;;4830675;29;20413;-77
2022/10/14 07:58:53;;;;;;;13.80;9.00;;;16.90;99.90;;;;;;4847018;29;20045;-78
2022/10/14 08:01:20;;;;;;;18.88;9.88;;;17.30;99.90;;;;;;4829355;29;20046;-79
2022/10/14 08:03:47;;;;;;;15.95;8.93;;;17.60;99.90;;;;;;4843463;29;20034;-78
2022/10/14 08:06:13;;;;;;;15.68;7.68;;;17.70;99.90;;;;;;4843061;29;20037;-79
2022/10/14 08:08:39;;;;;;;14.65;8.88;;;17.80;99.90;;;;;;4846689;29;20441;-78
2022/10/14 08:11:21;;;;;;;14.45;8.10;;;17.80;99.90;;;;;;4830682;29;20071;-78
2022/10/14 08:13:56;;;;;;;16.38;9.32;;;17.80;99.90;;;;;;4813428;29;20044;-78
2022/10/14 08:16:27;;;;;;;20.80;10.50;;;18.00;99.90;;;;;;4824910;29;20109;-77
2022/10/14 08:19:07;;;;;;;14.23;8.93;;;18.60;99.90;;;;;;4840619;29;20128;-84
2022/10/14 08:21:33;;;;;;;13.77;9.20;;;19.30;99.90;;;;;;4808659;29;20106;-83
2022/10/14 08:23:58;;;;;;;16.23;9.63;;;20.00;99.90;;;;;;4823654;29;20116;-86
2022/10/14 08:26:27;;;;;;;16.65;8.85;;;20.60;99.90;;;;;;4823612;29;20033;-84
2022/10/14 08:28:53;;;;;;;21.05;10.07;;;21.30;99.90;;;;;;4823999;29;20042;-83
2022/10/14 08:31:20;;;;;;;18.77;10.50;;;21.90;99.90;;;;;;4823735;29;20098;-82
2022/10/14 08:33:46;;;;;;;18.38;10.30;;;22.40;99.40;;;;;;4823515;29;20066;-81
2022/10/14 08:36:12;;;;;;;23.58;8.93;;;22.90;98.00;;;;;;4823450;29;20030;-83
2022/10/14 08:38:38;;;;;;;18.60;9.20;;;23.30;96.60;;;;;;4823398;29;20054;-82
2022/10/14 08:41:03;;;;;;;15.68;8.57;;;23.60;95.60;;;;;;4823452;29;20062;-80
2022/10/14 08:43:35;;;;;;;17.08;9.90;;;24.00;94.90;;;;;;4839879;29;20117;-82
2022/10/14 08:46:17;;;;;;;15.55;8.10;;;24.20;93.10;;;;;;4823131;29;20053;-82
2022/10/14 08:48:44;;;;;;;23.05;8.50;;;24.10;92.20;;;;;;4839496;29;20041;-82
2022/10/14 08:51:14;;;;;;;20.23;7.32;;;24.30;91.70;;;;;;4839787;29;20109;-81
2022/10/14 08:53:45;;;;;;;18.58;6.55;;;24.70;89.80;;;;;;4823102;29;20098;-81
2022/10/14 08:56:12;;;;;;;16.23;6.68;;;24.90;85.60;;;;;;4839500;29;20053;-81
2022/10/14 08:58:49;;;;;;;11.32;6.13;;;24.90;83.60;;;;;;4839757;29;20375;-81
2022/10/14 09:01:31;;;;;;;14.10;6.60;;;24.90;82.10;;;;;;4822788;29;20030;-81
2022/10/14 09:04:03;;;;;;;14.85;6.38;;;24.90;80.50;;;;;;4839435;29;20481;-80
2022/10/14 09:06:34;;;;;;;16.95;6.05;;;24.70;82.00;;;;;;4822794;29;20030;-81
2022/10/14 09:09:23;;;;;;;13.32;6.55;;;24.70;82.00;;;;;;4822837;29;20033;-80
2022/10/14 09:11:57;;;;;;;11.88;5.93;;;25.00;79.90;;;;;;4822712;29;20116;-81
2022/10/14 09:14:30;;;;;;;11.23;6.28;;;25.20;78.20;;;;;;4822252;29;20037;-81
2022/10/14 09:17:25;;;;;;;11.43;5.82;;;25.40;77.80;;;;;;4853410;29;20116;-80
2022/10/14 09:19:57;;;;;;;10.52;6.13;;;25.60;77.20;;;;;;4837785;29;20049;-80
2022/10/14 09:22:23;;;;;;;13.75;6.10;;;25.90;76.10;;;;;;4848138;29;20037;-78
2022/10/14 09:24:48;;;;;;;25.52;6.90;;;26.20;74.70;;;;;;4839023;29;20117;-78
2022/10/14 09:27:21;;;;;;;13.57;5.57;;;26.20;73.30;;;;;;4845245;29;20034;-77
2022/10/14 09:30:03;;;;;;;15.65;6.95;;;26.20;72.10;;;;;;4852362;29;20036;-79
2022/10/14 09:32:36;;;;;;;14.77;6.55;;;26.40;68.90;;;;;;4856294;29;20437;-79
2022/10/14 09:35:03;;;;;;;15.90;7.18;;;26.30;69.60;;;;;;4857358;29;20057;-78
2022/10/14 09:37:38;;;;;;;14.15;7.00;;;26.30;70.10;;;;;;4838714;29;20042;-79
2022/10/14 09:40:25;;;;;;;20.73;6.50;;;26.20;69.80;;;;;;4836362;29;20034;-79
2022/10/14 09:43:00;;;;;;;16.00;5.75;;;26.40;69.40;;;;;;4834036;29;20148;-79
2022/10/14 09:45:29;;;;;;;18.07;7.07;;;26.40;69.10;;;;;;4840482;29;20037;-78
2022/10/14 09:48:06;;;;;;;19.70;8.07;;;26.10;69.30;;;;;;4840077;29;20065;-79
2022/10/14 09:50:40;;;;;;;20.60;7.47;;;26.00;69.60;;;;;;4856945;29;20064;-79
2022/10/14 09:53:26;;;;;;;13.70;5.25;;;25.90;68.80;;;;;;4840494;29;20036;-79
2022/10/14 09:56:01;;;;;;;16.23;4.30;;;26.00;69.20;;;;;;4856867;29;20048;-79
2022/10/14 09:58:30;;;;;;;14.50;5.70;;;26.20;68.60;;;;;;4856459;29;20077;-79
2022/10/14 10:00:58;;;;;;;12.35;5.63;;;26.30;67.40;;;;;;4839473;29;20036;-77
2022/10/14 10:03:31;;;;;;;12.63;5.18;;;26.10;67.60;;;;;;4856610;29;20156;-79
2022/10/14 10:06:03;;;;;;;27.35;5.68;;;25.70;68.00;;;;;;4855485;29;20406;-79
2022/10/14 10:08:30;;;;;;;14.00;5.80;;;25.20;68.20;;;;;;4856580;29;20041;-80
2022/10/14 10:11:12;;;;;;;12.60;5.20;;;24.60;69.70;;;;;;4856594;29;20030;-84
2022/10/14 10:13:45;;;;;;;14.80;6.05;;;24.00;70.10;;;;;;4857076;29;20041;-84
2022/10/14 10:16:23;;;;;;;11.77;5.22;;;23.30;70.90;;;;;;4856651;29;20041;-86
2022/10/14 10:18:50;;;;;;;10.32;4.90;;;22.80;73.30;;;;;;4840101;29;20049;-86
2022/10/14 10:21:31;;;;;;;14.63;5.50;;;22.30;75.00;;;;;;4840492;29;20061;-85
2022/10/14 10:24:01;;;;;;;14.32;6.25;;;22.00;76.60;;;;;;4856927;29;20039;-82
2022/10/14 10:26:32;;;;;;;13.38;6.15;;;21.70;77.40;;;;;;4856588;29;20068;-80
2022/10/14 10:29:02;;;;;;;19.65;6.32;;;21.40;79.50;;;;;;4856478;29;20112;-81
2022/10/14 10:31:43;;;;;;;14.10;5.72;;;21.20;80.30;;;;;;4856455;29;20029;-80
2022/10/14 10:34:41;;;;;;;8.73;6.20;;;21.10;81.30;;;;;;4840737;29;20056;-76
2022/10/14 10:37:28;;;;;;;12.98;6.35;;;20.90;83.40;;;;;;4858505;29;20037;-76
2022/10/14 10:40:09;;;;;;;15.77;6.15;;;20.50;82.30;;;;;;4841455;29;20033;-77
2022/10/14 10:42:45;;;;;;;11.23;6.07;;;20.30;85.70;;;;;;4841715;29;20089;-79
2022/10/14 10:45:45;;;;;;;8.63;5.45;;;20.20;86.60;;;;;;4858994;29;20037;-76
2022/10/14 10:48:29;;;;;;;15.73;5.97;;;20.20;89.20;;;;;;4858623;29;20049;-78
2022/10/14 10:51:03;;;;;;;10.80;5.55;;;20.10;90.00;;;;;;4859150;29;20081;-78
2022/10/14 10:54:04;;;;;;;12.52;6.03;;;20.10;89.90;;;;;;4843079;29;20041;-78
2022/10/14 10:56:38;;;;;;;13.90;5.35;;;20.00;89.10;;;;;;4842982;29;20025;-77
2022/10/14 10:59:30;;;;;;;9.70;4.38;;;19.90;90.30;;;;;;4860693;29;20045;-77
2022/10/14 11:02:11;;;;;;;15.20;5.10;;;19.90;89.80;;;;;;4860802;29;20036;-77
2022/10/14 11:05:07;;;;;;;12.43;5.32;;;19.90;90.50;;;;;;4860934;29;20036;-77
2022/10/14 11:13:31;;;;;;;10.73;5.03;;;19.90;88.00;;;;;;4864034;29;20033;-76
2022/10/14 11:16:33;;;;;;;10.52;3.75;;;19.80;86.00;;;;;;4864719;29;20041;-76
2022/10/14 11:19:23;;;;;;;9.13;4.50;;;19.80;88.70;;;;;;4856701;29;20049;-77
2022/10/14 11:22:05;;;;;;;11.80;3.72;;;19.70;89.90;;;;;;4863934;29;20048;-76
2022/10/14 11:24:38;;;;;;;9.50;3.42;;;19.70;89.00;;;;;;4862724;29;20396;-75
2022/10/14 11:27:20;;;;;;;10.55;5.20;;;19.70;87.60;;;;;;4846301;29;20040;-76
2022/10/14 11:30:22;;;;;;;12.55;5.10;;;19.70;87.10;;;;;;4845227;29;20101;-76
2022/10/14 11:32:48;;;;;;;16.35;4.93;;;19.70;89.30;;;;;;4845488;29;20033;-77
2022/10/14 11:35:19;;;;;;;7.80;3.80;;;19.70;88.10;;;;;;4861490;29;20029;-77
2022/10/14 11:37:54;;;;;;;9.65;3.67;;;19.70;85.10;;;;;;4861724;29;20074;-76
2022/10/14 11:40:54;;;;;;;12.65;5.70;;;19.70;81.70;;;;;;4847006;29;20491;-76
2022/10/14 11:43:31;;;;;;;15.48;6.30;;;19.70;86.60;;;;;;4866823;29;20038;-76
2022/10/14 11:46:15;;;;;;;16.63;6.45;;;19.50;88.30;;;;;;4865850;29;20077;-76
2022/10/14 11:48:53;;;;;;;19.58;6.00;;;19.40;90.60;;;;;;4867635;29;20064;-76
2022/10/14 11:51:32;;;;;;;10.73;5.57;;;19.40;90.90;;;;;;4849932;29;20062;-76
2022/10/14 11:54:10;;;;;;;9.43;4.75;;;19.40;91.40;;;;;;4867856;29;20033;-76
2022/10/14 11:57:00;;;;;;;8.98;4.97;;;19.50;91.00;;;;;;4851101;29;20064;-75
2022/10/14 11:59:31;;;;;;;12.27;5.82;;;19.50;90.40;;;;;;4866838;29;20071;-76
2022/10/14 12:02:03;;;;;;;10.18;4.80;;;19.60;90.20;;;;;;4866886;29;20085;-76
2022/10/14 12:04:39;;;;;;;15.32;5.43;;;19.60;90.40;;;;;;4867274;29;20031;-76
2022/10/14 12:07:16;;;;;;;13.93;4.25;;;19.60;90.50;;;;;;4849754;29;20037;-76
2022/10/14 12:09:54;;;;;;;10.65;4.65;;;19.60;90.50;;;;;;4866731;29;20471;-77
2022/10/14 12:12:23;;;;;;;8.75;4.80;;;19.60;90.30;;;;;;4849853;29;20077;-76
2022/10/14 12:14:56;;;;;;;12.88;5.72;;;19.60;89.10;;;;;;4835089;29;20071;-76
2022/10/14 12:17:34;;;;;;;16.25;5.80;;;19.70;88.10;;;;;;4866123;29;20507;-76
2022/10/14 12:20:24;;;;;;;12.18;5.38;;;19.60;88.80;;;;;;4866301;29;20132;-74
2022/10/14 12:22:52;;;;;;;14.43;6.65;;;19.60;90.20;;;;;;4849720;29;20108;-76
2022/10/14 12:25:21;;;;;;;11.73;5.53;;;19.70;90.50;;;;;;4867309;29;20029;-77
2022/10/14 12:27:49;;;;;;;10.68;5.95;;;19.70;90.50;;;;;;4869179;29;20037;-76
2022/10/14 12:30:41;;;;;;;12.50;5.63;;;19.80;89.70;;;;;;4851461;29;20033;-77
2022/10/14 12:33:12;;;;;;;7.53;4.60;;;19.90;90.30;;;;;;4847576;29;20034;-76
2022/10/14 12:35:59;;;;;;;12.13;5.25;;;19.90;90.80;;;;;;4864909;29;20085;-76
2022/10/14 12:38:28;;;;;;;10.93;4.95;;;20.00;91.00;;;;;;4849836;29;20102;-77
2022/10/14 12:41:33;;;;;;;6.28;4.32;;;20.00;90.60;;;;;;4864348;29;20025;-76
2022/10/14 12:44:01;;;;;;;12.88;5.28;;;20.10;90.50;;;;;;4863547;29;20048;-78
2022/10/14 12:46:27;;;;;;;13.88;4.30;;;20.00;89.40;;;;;;4863018;29;20046;-77
2022/10/14 12:48:53;;;;;;;8.15;5.05;;;20.00;90.20;;;;;;4862134;29;20096;-77
2022/10/14 12:51:22;;;;;;;9.90;5.18;;;20.00;90.60;;;;;;4861158;29;20030;-75
2022/10/14 12:54:17;;;;;;;8.68;5.35;;;20.10;90.50;;;;;;4860820;29;20040;-79
2022/10/14 12:56:57;;;;;;;13.85;5.68;;;20.10;90.00;;;;;;4848671;29;20057;-77
2022/10/14 12:59:37;;;;;;;11.00;5.47;;;20.20;90.20;;;;;;4844211;29;20113;-78
2022/10/14 13:02:32;;;;;;;13.13;5.50;;;20.10;90.30;;;;;;4861028;29;20044;-76
2022/10/14 13:05:19;;;;;;;12.68;6.07;;;20.00;90.30;;;;;;4861292;29;20507;-77
2022/10/14 13:07:47;;;;;;;14.35;6.35;;;19.90;90.00;;;;;;4861953;29;20043;-76
2022/10/14 13:10:34;;;;;;;9.48;5.28;;;19.70;90.20;;;;;;4848044;29;20093;-76
2022/10/14 13:13:41;;;;;;;14.73;5.57;;;19.60;90.80;;;;;;4866148;29;20034;-75
2022/10/14 13:16:08;;;;;;;11.85;5.43;;;19.40;91.00;;;;;;4865862;29;20054;-76
2022/10/14 13:18:35;;;;;;;11.43;4.50;;;19.10;91.50;;;;;;4865751;29;20164;-76
2022/10/14 13:21:04;;;;;;;9.23;4.88;;;19.00;91.70;;;;;;4866876;29;20078;-77